sensor_id;sensor_type;location;lat;lon;timestamp;pressure;altitude;pressure_sealevel;temperature;humidity
19827;BME280;10074;52.018;4.726;2024-02-26T00:04:49;46297.44;;;-144.79;100.00
19827;BME280;10074;52.018;4.726;2024-02-26T00:09:50;46295.44;;;-144.79;100.00
19827;BME280;10074;52.018;4.726;2024-02-26T00:14:50;46301.47;;;-144.79;100.00
19827;BME280;10074;52.018;4.726;2024-02-26T00:19:50;46297.44;;;-144.79;100.00
19827;BME280;10074;52.018;4.726;2024-02-26T00:24:51;46305.47;;;-144.79;100.00
19827;BME280;10074;52.018;4.726;2024-02-26T00:29:51;46303.47;;;-144.79;100.00
19827;BME280;10074;52.018;4.726;2024-02-26T00:34:51;46307.47;;;-144.79;100.00
19827;BME280;10074;52.018;4.726;2024-02-26T00:39:51;46305.47;;;-144.79;100.00
19827;BME280;10074;52.018;4.726;2024-02-26T00:44:54;46301.47;;;-144.79;100.00
19827;BME280;10074;52.018;4.726;2024-02-26T00:49:54;46297.44;;;-144.79;100.00
19827;BME280;10074;52.018;4.726;2024-02-26T00:54:55;46303.47;;;-144.79;100.00
19827;BME280;10074;52.018;4.726;2024-02-26T00:59:55;46297.44;;;-144.79;100.00
19827;BME280;10074;52.018;4.726;2024-02-26T01:04:56;46301.47;;;-144.79;100.00
19827;BME280;10074;52.018;4.726;2024-02-26T01:09:56;46299.47;;;-144.79;100.00
19827;BME280;10074;52.018;4.726;2024-02-26T01:14:57;46297.44;;;-144.79;100.00
19827;BME280;10074;52.018;4.726;2024-02-26T01:19:57;46297.44;;;-144.79;100.00
19827;BME280;10074;52.018;4.726;2024-02-26T01:24:57;46301.47;;;-144.79;100.00
19827;BME280;10074;52.018;4.726;2024-02-26T01:29:58;46295.44;;;-144.79;100.00
19827;BME280;10074;52.018;4.726;2024-02-26T01:34:58;46299.47;;;-144.79;100.00
19827;BME280;10074;52.018;4.726;2024-02-26T01:39:59;46299.47;;;-144.79;100.00
19827;BME280;10074;52.018;4.726;2024-02-26T01:44:59;46305.47;;;-144.79;100.00
19827;BME280;10074;52.018;4.726;2024-02-26T01:49:59;46303.47;;;-144.79;100.00
19827;BME280;10074;52.018;4.726;2024-02-26T01:55:00;46295.44;;;-144.79;100.00
19827;BME280;10074;52.018;4.726;2024-02-26T02:00:01;46301.47;;;-144.79;100.00
19827;BME280;10074;52.018;4.726;2024-02-26T02:05:02;46307.47;;;-144.79;100.00
19827;BME280;10074;52.018;4.726;2024-02-26T02:10:03;46315.50;;;-144.79;100.00
19827;BME280;10074;52.018;4.726;2024-02-26T02:15:05;46307.47;;;-144.79;100.00
19827;BME280;10074;52.018;4.726;2024-02-26T02:20:14;46297.44;;;-144.79;100.00
19827;BME280;10074;52.018;4.726;2024-02-26T02:25:15;46303.47;;;-144.79;100.00
19827;BME280;10074;52.018;4.726;2024-02-26T02:30:15;46301.47;;;-144.79;100.00
19827;BME280;10074;52.018;4.726;2024-02-26T02:35:16;46313.50;;;-144.79;100.00
19827;BME280;10074;52.018;4.726;2024-02-26T02:40:16;46307.47;;;-144.79;100.00
19827;BME280;10074;52.018;4.726;2024-02-26T02:45:16;46307.47;;;-144.79;100.00
19827;BME280;10074;52.018;4.726;2024-02-26T02:50:17;46305.47;;;-144.79;100.00
19827;BME280;10074;52.018;4.726;2024-02-26T02:55:18;46313.50;;;-144.79;100.00
19827;BME280;10074;52.018;4.726;2024-02-26T03:00:18;46299.47;;;-144.79;100.00
19827;BME280;10074;52.018;4.726;2024-02-26T03:05:18;46309.47;;;-144.79;100.00
19827;BME280;10074;52.018;4.726;2024-02-26T03:10:19;46307.47;;;-144.79;100.00
19827;BME280;10074;52.018;4.726;2024-02-26T03:15:19;46303.47;;;-144.79;100.00
19827;BME280;10074;52.018;4.726;2024-02-26T03:20:20;46301.47;;;-144.79;100.00
19827;BME280;10074;52.018;4.726;2024-02-26T03:25:20;46307.47;;;-144.79;100.00
19827;BME280;10074;52.018;4.726;2024-02-26T03:30:20;46301.47;;;-144.79;100.00
19827;BME280;10074;52.018;4.726;2024-02-26T03:35:20;46307.47;;;-144.79;100.00
19827;BME280;10074;52.018;4.726;2024-02-26T03:40:21;46299.47;;;-144.79;100.00
19827;BME280;10074;52.018;4.726;2024-02-26T03:45:21;46299.47;;;-144.79;100.00
19827;BME280;10074;52.018;4.726;2024-02-26T03:50:21;46305.47;;;-144.79;100.00
19827;BME280;10074;52.018;4.726;2024-02-26T03:55:22;46299.47;;;-144.79;100.00
19827;BME280;10074;52.018;4.726;2024-02-26T04:00:24;46303.47;;;-144.79;100.00
19827;BME280;10074;52.018;4.726;2024-02-26T04:05:26;46305.47;;;-144.79;100.00
19827;BME280;10074;52.018;4.726;2024-02-26T04:10:26;46299.47;;;-144.79;100.00
19827;BME280;10074;52.018;4.726;2024-02-26T04:15:26;46301.47;;;-144.79;100.00
19827;BME280;10074;52.018;4.726;2024-02-26T04:20:27;46303.47;;;-144.79;100.00
19827;BME280;10074;52.018;4.726;2024-02-26T04:25:27;46297.44;;;-144.79;100.00
19827;BME280;10074;52.018;4.726;2024-02-26T04:30:28;46303.47;;;-144.79;100.00
19827;BME280;10074;52.018;4.726;2024-02-26T04:35:29;46299.47;;;-144.79;100.00
19827;BME280;10074;52.018;4.726;2024-02-26T04:40:29;46297.44;;;-144.79;100.00
19827;BME280;10074;52.018;4.726;2024-02-26T04:45:29;46295.44;;;-144.79;100.00
19827;BME280;10074;52.018;4.726;2024-02-26T04:50:30;46289.44;;;-144.79;100.00
19827;BME280;10074;52.018;4.726;2024-02-26T04:55:30;46283.41;;;-144.79;100.00
19827;BME280;10074;52.018;4.726;2024-02-26T05:00:30;46291.44;;;-144.79;100.00
19827;BME280;10074;52.018;4.726;2024-02-26T05:05:30;46295.44;;;-144.79;100.00
19827;BME280;10074;52.018;4.726;2024-02-26T05:10:31;46289.44;;;-144.79;100.00
19827;BME280;10074;52.018;4.726;2024-02-26T05:15:31;46287.44;;;-144.79;100.00
19827;BME280;10074;52.018;4.726;2024-02-26T05:20:32;46291.44;;;-144.79;100.00
19827;BME280;10074;52.018;4.726;2024-02-26T05:25:35;46291.44;;;-144.79;100.00
19827;BME280;10074;52.018;4.726;2024-02-26T05:30:35;46285.41;;;-144.79;100.00
19827;BME280;10074;52.018;4.726;2024-02-26T05:35:36;46283.41;;;-144.79;100.00
19827;BME280;10074;52.018;4.726;2024-02-26T05:40:37;46285.41;;;-144.79;100.00
19827;BME280;10074;52.018;4.726;2024-02-26T05:45:38;46291.44;;;-144.79;100.00
19827;BME280;10074;52.018;4.726;2024-02-26T05:50:38;46291.44;;;-144.79;100.00
19827;BME280;10074;52.018;4.726;2024-02-26T05:55:38;46287.44;;;-144.79;100.00
19827;BME280;10074;52.018;4.726;2024-02-26T06:00:39;46293.44;;;-144.79;100.00
19827;BME280;10074;52.018;4.726;2024-02-26T06:05:39;46299.47;;;-144.79;100.00
19827;BME280;10074;52.018;4.726;2024-02-26T06:10:40;46295.44;;;-144.79;100.00
19827;BME280;10074;52.018;4.726;2024-02-26T06:15:40;46293.44;;;-144.79;100.00
19827;BME280;10074;52.018;4.726;2024-02-26T06:20:40;46295.44;;;-144.79;100.00
19827;BME280;10074;52.018;4.726;2024-02-26T06:25:41;46289.44;;;-144.79;100.00
19827;BME280;10074;52.018;4.726;2024-02-26T06:30:42;46293.44;;;-144.79;100.00
19827;BME280;10074;52.018;4.726;2024-02-26T06:35:44;46293.44;;;-144.79;100.00
19827;BME280;10074;52.018;4.726;2024-02-26T06:40:45;46283.41;;;-144.79;100.00
19827;BME280;10074;52.018;4.726;2024-02-26T06:45:45;46285.41;;;-144.79;100.00
19827;BME280;10074;52.018;4.726;2024-02-26T06:50:46;46285.41;;;-144.79;100.00
19827;BME280;10074;52.018;4.726;2024-02-26T06:55:46;46279.41;;;-144.79;100.00
19827;BME280;10074;52.018;4.726;2024-02-26T07:00:46;46269.38;;;-144.79;100.00
19827;BME280;10074;52.018;4.726;2024-02-26T07:05:48;46267.38;;;-144.79;100.00
19827;BME280;10074;52.018;4.726;2024-02-26T07:10:48;46271.38;;;-144.79;100.00
19827;BME280;10074;52.018;4.726;2024-02-26T07:15:49;46275.41;;;-144.79;100.00
19827;BME280;10074;52.018;4.726;2024-02-26T07:20:49;46263.38;;;-144.79;100.00
19827;BME280;10074;52.018;4.726;2024-02-26T07:25:49;46265.38;;;-144.79;100.00
19827;BME280;10074;52.018;4.726;2024-02-26T07:30:52;46261.34;;;-144.79;100.00
19827;BME280;10074;52.018;4.726;2024-02-26T07:35:53;46259.34;;;-144.79;100.00
19827;BME280;10074;52.018;4.726;2024-02-26T07:40:53;46257.34;;;-144.79;100.00
19827;BME280;10074;52.018;4.726;2024-02-26T07:45:54;46263.38;;;-144.79;100.00
19827;BME280;10074;52.018;4.726;2024-02-26T07:50:54;46259.34;;;-144.79;100.00
19827;BME280;10074;52.018;4.726;2024-02-26T07:55:55;46271.38;;;-144.79;100.00
19827;BME280;10074;52.018;4.726;2024-02-26T08:00:55;46251.34;;;-144.79;100.00
19827;BME280;10074;52.018;4.726;2024-02-26T08:05:55;46257.34;;;-144.79;100.00
19827;BME280;10074;52.018;4.726;2024-02-26T08:10:56;46259.34;;;-144.79;100.00
19827;BME280;10074;52.018;4.726;2024-02-26T08:15:56;46259.34;;;-144.79;100.00
19827;BME280;10074;52.018;4.726;2024-02-26T08:20:57;46259.34;;;-144.79;100.00
19827;BME280;10074;52.018;4.726;2024-02-26T08:25:57;46263.38;;;-144.79;100.00
19827;BME280;10074;52.018;4.726;2024-02-26T08:30:57;46265.38;;;-144.79;100.00
19827;BME280;10074;52.018;4.726;2024-02-26T08:35:58;46263.38;;;-144.79;100.00
19827;BME280;10074;52.018;4.726;2024-02-26T08:40:59;46263.38;;;-144.79;100.00
19827;BME280;10074;52.018;4.726;2024-02-26T08:46:00;46271.38;;;-144.79;100.00
19827;BME280;10074;52.018;4.726;2024-02-26T08:51:00;46269.38;;;-144.79;100.00
19827;BME280;10074;52.018;4.726;2024-02-26T08:56:04;46265.38;;;-144.79;100.00
19827;BME280;10074;52.018;4.726;2024-02-26T09:01:05;46265.38;;;-144.79;100.00
19827;BME280;10074;52.018;4.726;2024-02-26T09:06:05;46265.38;;;-144.79;100.00
19827;BME280;10074;52.018;4.726;2024-02-26T09:11:06;46259.34;;;-144.79;100.00
19827;BME280;10074;52.018;4.726;2024-02-26T09:16:07;46265.38;;;-144.79;100.00
19827;BME280;10074;52.018;4.726;2024-02-26T09:21:07;46265.38;;;-144.79;100.00
19827;BME280;10074;52.018;4.726;2024-02-26T09:26:07;46269.38;;;-144.79;100.00
19827;BME280;10074;52.018;4.726;2024-02-26T09:31:08;46263.38;;;-144.79;100.00
19827;BME280;10074;52.018;4.726;2024-02-26T09:36:08;46263.38;;;-144.79;100.00
19827;BME280;10074;52.018;4.726;2024-02-26T09:41:14;46261.34;;;-144.79;100.00
19827;BME280;10074;52.018;4.726;2024-02-26T09:46:15;46269.38;;;-144.79;100.00
19827;BME280;10074;52.018;4.726;2024-02-26T09:51:18;46261.34;;;-144.79;100.00
19827;BME280;10074;52.018;4.726;2024-02-26T09:56:19;46265.38;;;-144.79;100.00
19827;BME280;10074;52.018;4.726;2024-02-26T10:01:20;46265.38;;;-144.79;100.00
19827;BME280;10074;52.018;4.726;2024-02-26T10:06:20;46269.38;;;-144.79;100.00
19827;BME280;10074;52.018;4.726;2024-02-26T10:11:22;46257.34;;;-144.79;100.00
19827;BME280;10074;52.018;4.726;2024-02-26T10:16:22;46269.38;;;-144.79;100.00
19827;BME280;10074;52.018;4.726;2024-02-26T10:21:23;46263.38;;;-144.79;100.00
19827;BME280;10074;52.018;4.726;2024-02-26T10:26:23;46265.38;;;-144.79;100.00
19827;BME280;10074;52.018;4.726;2024-02-26T10:31:23;46265.38;;;-144.79;100.00
19827;BME280;10074;52.018;4.726;2024-02-26T10:36:25;46267.38;;;-144.79;100.00
19827;BME280;10074;52.018;4.726;2024-02-26T10:41:27;46261.34;;;-144.79;100.00
19827;BME280;10074;52.018;4.726;2024-02-26T10:46:27;46265.38;;;-144.79;100.00
19827;BME280;10074;52.018;4.726;2024-02-26T10:51:28;46271.38;;;-144.79;100.00
19827;BME280;10074;52.018;4.726;2024-02-26T10:56:29;46267.38;;;-144.79;100.00
19827;BME280;10074;52.018;4.726;2024-02-26T11:01:29;46265.38;;;-144.79;100.00
19827;BME280;10074;52.018;4.726;2024-02-26T11:06:31;46269.38;;;-144.79;100.00
19827;BME280;10074;52.018;4.726;2024-02-26T11:11:34;46263.38;;;-144.79;100.00
19827;BME280;10074;52.018;4.726;2024-02-26T11:16:38;46259.34;;;-144.79;100.00
19827;BME280;10074;52.018;4.726;2024-02-26T11:21:39;46267.38;;;-144.79;100.00
19827;BME280;10074;52.018;4.726;2024-02-26T11:26:46;46261.34;;;-144.79;100.00
19827;BME280;10074;52.018;4.726;2024-02-26T11:31:48;46269.38;;;-144.79;100.00
19827;BME280;10074;52.018;4.726;2024-02-26T11:36:49;46265.38;;;-144.79;100.00
19827;BME280;10074;52.018;4.726;2024-02-26T11:41:50;46267.38;;;-144.79;100.00
19827;BME280;10074;52.018;4.726;2024-02-26T11:46:50;46263.38;;;-144.79;100.00
19827;BME280;10074;52.018;4.726;2024-02-26T11:51:51;46263.38;;;-144.79;100.00
19827;BME280;10074;52.018;4.726;2024-02-26T11:56:52;46265.38;;;-144.79;100.00
19827;BME280;10074;52.018;4.726;2024-02-26T12:01:52;46267.38;;;-144.79;100.00
19827;BME280;10074;52.018;4.726;2024-02-26T12:06:56;46267.38;;;-144.79;100.00
19827;BME280;10074;52.018;4.726;2024-02-26T12:11:57;46263.38;;;-144.79;100.00
19827;BME280;10074;52.018;4.726;2024-02-26T12:16:57;46263.38;;;-144.79;100.00
19827;BME280;10074;52.018;4.726;2024-02-26T12:21:58;46263.38;;;-144.79;100.00
19827;BME280;10074;52.018;4.726;2024-02-26T12:26:58;46257.34;;;-144.79;100.00
19827;BME280;10074;52.018;4.726;2024-02-26T12:31:59;46265.38;;;-144.79;100.00
19827;BME280;10074;52.018;4.726;2024-02-26T12:36:59;46263.38;;;-144.79;100.00
19827;BME280;10074;52.018;4.726;2024-02-26T12:41:59;46261.34;;;-144.79;100.00
19827;BME280;10074;52.018;4.726;2024-02-26T12:47:01;46263.38;;;-144.79;100.00
19827;BME280;10074;52.018;4.726;2024-02-26T12:52:03;46267.38;;;-144.79;100.00
19827;BME280;10074;52.018;4.726;2024-02-26T12:57:04;46267.38;;;-144.79;100.00
19827;BME280;10074;52.018;4.726;2024-02-26T13:02:07;46263.38;;;-144.79;100.00
19827;BME280;10074;52.018;4.726;2024-02-26T13:07:07;46263.38;;;-144.79;100.00
19827;BME280;10074;52.018;4.726;2024-02-26T13:12:08;46267.38;;;-144.79;100.00
19827;BME280;10074;52.018;4.726;2024-02-26T13:17:09;46261.34;;;-144.79;100.00
19827;BME280;10074;52.018;4.726;2024-02-26T13:22:10;46259.34;;;-144.79;100.00
19827;BME280;10074;52.018;4.726;2024-02-26T13:27:10;46263.38;;;-144.79;100.00
19827;BME280;10074;52.018;4.726;2024-02-26T13:32:10;46271.38;;;-144.79;100.00
19827;BME280;10074;52.018;4.726;2024-02-26T13:37:12;46259.34;;;-144.79;100.00
19827;BME280;10074;52.018;4.726;2024-02-26T13:42:12;46267.38;;;-144.79;100.00
19827;BME280;10074;52.018;4.726;2024-02-26T13:47:13;46263.38;;;-144.79;100.00
19827;BME280;10074;52.018;4.726;2024-02-26T13:52:13;46265.38;;;-144.79;100.00
19827;BME280;10074;52.018;4.726;2024-02-26T13:57:14;46269.38;;;-144.79;100.00
19827;BME280;10074;52.018;4.726;2024-02-26T14:02:14;46263.38;;;-144.79;100.00
19827;BME280;10074;52.018;4.726;2024-02-26T14:07:14;46265.38;;;-144.79;100.00
19827;BME280;10074;52.018;4.726;2024-02-26T14:12:17;46263.38;;;-144.79;100.00
19827;BME280;10074;52.018;4.726;2024-02-26T14:17:17;46257.34;;;-144.79;100.00
19827;BME280;10074;52.018;4.726;2024-02-26T14:22:17;46267.38;;;-144.79;100.00
19827;BME280;10074;52.018;4.726;2024-02-26T14:27:18;46271.38;;;-144.79;100.00
19827;BME280;10074;52.018;4.726;2024-02-26T14:32:22;46263.38;;;-144.79;100.00
19827;BME280;10074;52.018;4.726;2024-02-26T14:37:22;46263.38;;;-144.79;100.00
19827;BME280;10074;52.018;4.726;2024-02-26T14:42:22;46263.38;;;-144.79;100.00
19827;BME280;10074;52.018;4.726;2024-02-26T14:47:24;46263.38;;;-144.79;100.00
19827;BME280;10074;52.018;4.726;2024-02-26T14:52:24;46267.38;;;-144.79;100.00
19827;BME280;10074;52.018;4.726;2024-02-26T14:57:24;46263.38;;;-144.79;100.00
19827;BME280;10074;52.018;4.726;2024-02-26T15:02:25;46259.34;;;-144.79;100.00
19827;BME280;10074;52.018;4.726;2024-02-26T15:07:25;46259.34;;;-144.79;100.00
19827;BME280;10074;52.018;4.726;2024-02-26T15:12:25;46259.34;;;-144.79;100.00
19827;BME280;10074;52.018;4.726;2024-02-26T15:17:27;46259.34;;;-144.79;100.00
19827;BME280;10074;52.018;4.726;2024-02-26T15:22:28;46263.38;;;-144.79;100.00
19827;BME280;10074;52.018;4.726;2024-02-26T15:27:28;46263.38;;;-144.79;100.00
19827;BME280;10074;52.018;4.726;2024-02-26T15:32:28;46263.38;;;-144.79;100.00
19827;BME280;10074;52.018;4.726;2024-02-26T15:37:29;46269.38;;;-144.79;100.00
19827;BME280;10074;52.018;4.726;2024-02-26T15:42:29;46265.38;;;-144.79;100.00
19827;BME280;10074;52.018;4.726;2024-02-26T15:47:29;46265.38;;;-144.79;100.00
19827;BME280;10074;52.018;4.726;2024-02-26T15:52:30;46267.38;;;-144.79;100.00
19827;BME280;10074;52.018;4.726;2024-02-26T15:57:30;46271.38;;;-144.79;100.00
19827;BME280;10074;52.018;4.726;2024-02-26T16:02:30;46269.38;;;-144.79;100.00
19827;BME280;10074;52.018;4.726;2024-02-26T16:07:35;46267.38;;;-144.79;100.00
19827;BME280;10074;52.018;4.726;2024-02-26T16:12:44;46265.38;;;-144.79;100.00
19827;BME280;10074;52.018;4.726;2024-02-26T16:17:49;46267.38;;;-144.79;100.00
19827;BME280;10074;52.018;4.726;2024-02-26T16:22:51;46271.38;;;-144.79;100.00
19827;BME280;10074;52.018;4.726;2024-02-26T16:27:52;46261.34;;;-144.79;100.00
19827;BME280;10074;52.018;4.726;2024-02-26T16:32:52;46255.34;;;-144.79;100.00
19827;BME280;10074;52.018;4.726;2024-02-26T16:37:53;46265.38;;;-144.79;100.00
19827;BME280;10074;52.018;4.726;2024-02-26T16:42:53;46271.38;;;-144.79;100.00
19827;BME280;10074;52.018;4.726;2024-02-26T16:47:53;46261.34;;;-144.79;100.00
19827;BME280;10074;52.018;4.726;2024-02-26T16:52:53;46269.38;;;-144.79;100.00
19827;BME280;10074;52.018;4.726;2024-02-26T16:57:55;46263.38;;;-144.79;100.00
19827;BME280;10074;52.018;4.726;2024-02-26T17:02:58;46265.38;;;-144.79;100.00
19827;BME280;10074;52.018;4.726;2024-02-26T17:08:00;46271.38;;;-144.79;100.00
19827;BME280;10074;52.018;4.726;2024-02-26T17:13:00;46267.38;;;-144.79;100.00
19827;BME280;10074;52.018;4.726;2024-02-26T17:18:01;46269.38;;;-144.79;100.00
19827;BME280;10074;52.018;4.726;2024-02-26T17:23:01;46263.38;;;-144.79;100.00
19827;BME280;10074;52.018;4.726;2024-02-26T17:28:02;46265.38;;;-144.79;100.00
19827;BME280;10074;52.018;4.726;2024-02-26T17:33:02;46271.38;;;-144.79;100.00
19827;BME280;10074;52.018;4.726;2024-02-26T17:38:03;46267.38;;;-144.79;100.00
19827;BME280;10074;52.018;4.726;2024-02-26T17:43:04;46267.38;;;-144.79;100.00
19827;BME280;10074;52.018;4.726;2024-02-26T17:48:04;46267.38;;;-144.79;100.00
19827;BME280;10074;52.018;4.726;2024-02-26T17:53:05;46265.38;;;-144.79;100.00
19827;BME280;10074;52.018;4.726;2024-02-26T17:58:05;46269.38;;;-144.79;100.00
19827;BME280;10074;52.018;4.726;2024-02-26T18:03:06;46263.38;;;-144.79;100.00
19827;BME280;10074;52.018;4.726;2024-02-26T18:08:06;46261.34;;;-144.79;100.00
19827;BME280;10074;52.018;4.726;2024-02-26T18:13:06;46265.38;;;-144.79;100.00
19827;BME280;10074;52.018;4.726;2024-02-26T18:18:06;46271.38;;;-144.79;100.00
19827;BME280;10074;52.018;4.726;2024-02-26T18:23:07;46261.34;;;-144.79;100.00
19827;BME280;10074;52.018;4.726;2024-02-26T18:28:07;46263.38;;;-144.79;100.00
19827;BME280;10074;52.018;4.726;2024-02-26T18:33:07;46265.38;;;-144.79;100.00
19827;BME280;10074;52.018;4.726;2024-02-26T18:38:08;46263.38;;;-144.79;100.00
19827;BME280;10074;52.018;4.726;2024-02-26T18:43:08;46265.38;;;-144.79;100.00
19827;BME280;10074;52.018;4.726;2024-02-26T18:48:09;46267.38;;;-144.79;100.00
19827;BME280;10074;52.018;4.726;2024-02-26T18:53:09;46259.34;;;-144.79;100.00
19827;BME280;10074;52.018;4.726;2024-02-26T18:58:10;46269.38;;;-144.79;100.00
19827;BME280;10074;52.018;4.726;2024-02-26T19:03:10;46273.38;;;-144.79;100.00
19827;BME280;10074;52.018;4.726;2024-02-26T19:08:11;46263.38;;;-144.79;100.00
19827;BME280;10074;52.018;4.726;2024-02-26T19:13:11;46275.41;;;-144.79;100.00
19827;BME280;10074;52.018;4.726;2024-02-26T19:18:12;46267.38;;;-144.79;100.00
19827;BME280;10074;52.018;4.726;2024-02-26T19:23:13;46263.38;;;-144.79;100.00
19827;BME280;10074;52.018;4.726;2024-02-26T19:28:13;46271.38;;;-144.79;100.00
19827;BME280;10074;52.018;4.726;2024-02-26T19:33:15;46265.38;;;-144.79;100.00
19827;BME280;10074;52.018;4.726;2024-02-26T19:38:16;46263.38;;;-144.79;100.00
19827;BME280;10074;52.018;4.726;2024-02-26T19:43:17;46267.38;;;-144.79;100.00
19827;BME280;10074;52.018;4.726;2024-02-26T19:48:17;46265.38;;;-144.79;100.00
19827;BME280;10074;52.018;4.726;2024-02-26T19:53:17;46267.38;;;-144.79;100.00
19827;BME280;10074;52.018;4.726;2024-02-26T19:58:18;46271.38;;;-144.79;100.00
19827;BME280;10074;52.018;4.726;2024-02-26T20:03:18;46261.34;;;-144.79;100.00
19827;BME280;10074;52.018;4.726;2024-02-26T20:08:19;46265.38;;;-144.79;100.00
19827;BME280;10074;52.018;4.726;2024-02-26T20:13:19;46263.38;;;-144.79;100.00
19827;BME280;10074;52.018;4.726;2024-02-26T20:18:22;46259.34;;;-144.79;100.00
19827;BME280;10074;52.018;4.726;2024-02-26T20:23:22;46265.38;;;-144.79;100.00
19827;BME280;10074;52.018;4.726;2024-02-26T20:28:22;46269.38;;;-144.79;100.00
19827;BME280;10074;52.018;4.726;2024-02-26T20:33:22;46271.38;;;-144.79;100.00
19827;BME280;10074;52.018;4.726;2024-02-26T20:38:24;46263.38;;;-144.79;100.00
19827;BME280;10074;52.018;4.726;2024-02-26T20:43:24;46269.38;;;-144.79;100.00
19827;BME280;10074;52.018;4.726;2024-02-26T20:48:25;46263.38;;;-144.79;100.00
19827;BME280;10074;52.018;4.726;2024-02-26T20:53:25;46263.38;;;-144.79;100.00
19827;BME280;10074;52.018;4.726;2024-02-26T20:58:26;46271.38;;;-144.79;100.00
19827;BME280;10074;52.018;4.726;2024-02-26T21:03:26;46257.34;;;-144.79;100.00
19827;BME280;10074;52.018;4.726;2024-02-26T21:08:26;46267.38;;;-144.79;100.00
19827;BME280;10074;52.018;4.726;2024-02-26T21:13:27;46265.38;;;-144.79;100.00
19827;BME280;10074;52.018;4.726;2024-02-26T21:18:27;46263.38;;;-144.79;100.00
19827;BME280;10074;52.018;4.726;2024-02-26T21:23:27;46263.38;;;-144.79;100.00
19827;BME280;10074;52.018;4.726;2024-02-26T21:28:28;46267.38;;;-144.79;100.00
19827;BME280;10074;52.018;4.726;2024-02-26T21:33:28;46259.34;;;-144.79;100.00
19827;BME280;10074;52.018;4.726;2024-02-26T21:38:28;46271.38;;;-144.79;100.00
19827;BME280;10074;52.018;4.726;2024-02-26T21:43:30;46265.38;;;-144.79;100.00
19827;BME280;10074;52.018;4.726;2024-02-26T21:48:32;46267.38;;;-144.79;100.00
19827;BME280;10074;52.018;4.726;2024-02-26T21:53:32;46259.34;;;-144.79;100.00
19827;BME280;10074;52.018;4.726;2024-02-26T21:58:33;46265.38;;;-144.79;100.00
19827;BME280;10074;52.018;4.726;2024-02-26T22:03:33;46257.34;;;-144.79;100.00
19827;BME280;10074;52.018;4.726;2024-02-26T22:08:35;46261.34;;;-144.79;100.00
19827;BME280;10074;52.018;4.726;2024-02-26T22:13:35;46261.34;;;-144.79;100.00
19827;BME280;10074;52.018;4.726;2024-02-26T22:18:36;46255.34;;;-144.79;100.00
19827;BME280;10074;52.018;4.726;2024-02-26T22:23:36;46261.34;;;-144.79;100.00
19827;BME280;10074;52.018;4.726;2024-02-26T22:28:37;46267.38;;;-144.79;100.00
19827;BME280;10074;52.018;4.726;2024-02-26T22:33:37;46273.38;;;-144.79;100.00
19827;BME280;10074;52.018;4.726;2024-02-26T22:38:38;46263.38;;;-144.79;100.00
19827;BME280;10074;52.018;4.726;2024-02-26T22:43:38;46265.38;;;-144.79;100.00
19827;BME280;10074;52.018;4.726;2024-02-26T22:48:38;46265.38;;;-144.79;100.00
19827;BME280;10074;52.018;4.726;2024-02-26T22:53:39;46271.38;;;-144.79;100.00
19827;BME280;10074;52.018;4.726;2024-02-26T22:58:39;46271.38;;;-144.79;100.00
19827;BME280;10074;52.018;4.726;2024-02-26T23:03:39;46267.38;;;-144.79;100.00
19827;BME280;10074;52.018;4.726;2024-02-26T23:08:39;46263.38;;;-144.79;100.00
19827;BME280;10074;52.018;4.726;2024-02-26T23:13:42;46271.38;;;-144.79;100.00
19827;BME280;10074;52.018;4.726;2024-02-26T23:18:42;46269.38;;;-144.79;100.00
19827;BME280;10074;52.018;4.726;2024-02-26T23:23:43;46271.38;;;-144.79;100.00
19827;BME280;10074;52.018;4.726;2024-02-26T23:28:43;46263.38;;;-144.79;100.00
19827;BME280;10074;52.018;4.726;2024-02-26T23:33:43;46267.38;;;-144.79;100.00
19827;BME280;10074;52.018;4.726;2024-02-26T23:38:44;46255.34;;;-144.79;100.00
19827;BME280;10074;52.018;4.726;2024-02-26T23:43:44;46267.38;;;-144.79;100.00
19827;BME280;10074;52.018;4.726;2024-02-26T23:48:44;46267.38;;;-144.79;100.00
19827;BME280;10074;52.018;4.726;2024-02-26T23:53:45;46269.38;;;-144.79;100.00
19827;BME280;10074;52.018;4.726;2024-02-26T23:58:46;46269.38;;;-144.79;100.00
